Time,TemperatureF,DewpointF,PressureIn,WindDirection,WindDirectionDegrees,WindSpeedMPH,WindSpeedGustMPH,Humidity,HourlyPrecipIn,Conditions,Clouds,dailyrainin,SoftwareType,DateUTC
2013-10-23 00:08:00,45.4,26.0,30.29,WNW,290,0.0,3.0,46,0.00,,,0.00,weatherlink.com 1.10,2013-10-23 06:08:00,
2013-10-23 00:23:00,46.1,25.0,30.29,SW,231,1.0,4.0,43,0.00,,,0.00,weatherlink.com 1.10,2013-10-23 06:23:00,
2013-10-23 00:38:00,45.7,24.0,30.29,SW,231,3.0,4.0,42,0.00,,,0.00,weatherlink.com 1.10,2013-10-23 06:38:00,
2013-10-23 00:53:00,46.5,24.0,30.29,SW,228,3.0,11.0,41,0.00,,,0.00,weatherlink.com 1.10,2013-10-23 06:53:00,
2013-10-23 01:08:00,46.8,22.0,30.29,WSW,237,7.0,12.0,37,0.00,,,0.00,weatherlink.com 1.10,2013-10-23 07:08:00,
2013-10-23 01:23:00,46.7,23.0,30.29,SW,222,4.0,10.0,39,0.00,,,0.00,weatherlink.com 1.10,2013-10-23 07:23:00,
2013-10-23 01:38:00,46.4,21.0,30.29,SSW,210,10.0,12.0,36,0.00,,,0.00,weatherlink.com 1.10,2013-10-23 07:38:00,
2013-10-23 01:54:00,44.6,24.0,30.29,WSW,249,2.0,8.0,45,0.00,,,0.00,weatherlink.com 1.10,2013-10-23 07:54:00,
2013-10-23 02:09:00,44.6,23.0,30.30,WSW,249,0.0,4.0,42,0.00,,,0.00,weatherlink.com 1.10,2013-10-23 08:09:00,
2013-10-23 02:24:00,42.5,23.0,30.30,WSW,249,0.0,3.0,47,0.00,,,0.00,weatherlink.com 1.10,2013-10-23 08:24:00,
2013-10-23 02:39:00,39.6,25.0,30.29,WSW,249,1.0,4.0,56,0.00,,,0.00,weatherlink.com 1.10,2013-10-23 08:39:00,
2013-10-23 02:54:00,41.5,22.0,30.29,WSW,249,1.0,4.0,46,0.00,,,0.00,weatherlink.com 1.10,2013-10-23 08:54:00,
2013-10-23 03:09:00,42.9,22.0,30.29,WSW,249,1.0,3.0,44,0.00,,,0.00,weatherlink.com 1.10,2013-10-23 09:09:00,
2013-10-23 03:24:00,40.8,25.0,30.29,SSW,206,1.0,5.0,53,0.00,,,0.00,weatherlink.com 1.10,2013-10-23 09:24:00,
2013-10-23 03:39:00,39.1,25.0,30.29,SW,221,2.0,4.0,58,0.00,,,0.00,weatherlink.com 1.10,2013-10-23 09:39:00,
2013-10-23 03:54:00,36.9,24.0,30.29,SW,221,1.0,6.0,61,0.00,,,0.00,weatherlink.com 1.10,2013-10-23 09:54:00,
2013-10-23 04:09:00,36.2,24.0,30.29,SW,221,3.0,3.0,62,0.00,,,0.00,weatherlink.com 1.10,2013-10-23 10:09:00,
2013-10-23 04:24:00,36.2,23.0,30.29,SW,221,2.0,3.0,60,0.00,,,0.00,weatherlink.com 1.10,2013-10-23 10:24:00,
2013-10-23 04:39:00,36.6,22.0,30.29,SW,221,2.0,3.0,57,0.00,,,0.00,weatherlink.com 1.10,2013-10-23 10:39:00,
2013-10-23 04:54:00,36.8,23.0,30.29,SW,221,2.0,3.0,58,0.00,,,0.00,weatherlink.com 1.10,2013-10-23 10:54:00,
2013-10-23 05:09:00,38.0,21.0,30.29,SW,224,0.0,4.0,51,0.00,,,0.00,weatherlink.com 1.10,2013-10-23 11:09:00,
2013-10-23 05:24:00,39.8,19.0,30.29,NNW,336,1.0,4.0,44,0.00,,,0.00,weatherlink.com 1.10,2013-10-23 11:24:00,
2013-10-23 05:39:00,42.1,17.0,30.29,WSW,238,1.0,6.0,36,0.00,,,0.00,weatherlink.com 1.10,2013-10-23 11:39:00,
2013-10-23 05:54:00,45.8,13.0,30.29,SSW,204,12.0,13.0,27,0.00,,,0.00,weatherlink.com 1.10,2013-10-23 11:54:00,
2013-10-23 06:09:00,46.8,14.0,30.29,SSW,211,10.0,15.0,27,0.00,,,0.00,weatherlink.com 1.10,2013-10-23 12:09:00,
2013-10-23 06:24:00,46.1,14.0,30.29,SW,219,10.0,14.0,28,0.00,,,0.00,weatherlink.com 1.10,2013-10-23 12:24:00,
2013-10-23 06:39:00,46.7,13.0,30.29,SSW,200,5.0,18.0,26,0.00,,,0.00,weatherlink.com 1.10,2013-10-23 12:39:00,
2013-10-23 06:54:00,46.0,14.0,30.29,SW,231,9.0,16.0,27,0.00,,,0.00,weatherlink.com 1.10,2013-10-23 12:54:00,
2013-10-23 07:09:00,46.2,14.0,30.28,SW,214,12.0,16.0,27,0.00,,,0.00,weatherlink.com 1.10,2013-10-23 13:09:00,
2013-10-23 07:24:00,45.8,14.0,30.28,SW,216,9.0,16.0,28,0.00,,,0.00,weatherlink.com 1.10,2013-10-23 13:24:00,
2013-10-23 07:39:00,45.5,13.0,30.28,SSW,209,5.0,13.0,27,0.00,,,0.00,weatherlink.com 1.10,2013-10-23 13:39:00,
2013-10-23 07:54:00,45.7,13.0,30.29,SSW,212,7.0,13.0,27,0.00,,,0.00,weatherlink.com 1.10,2013-10-23 13:54:00,
2013-10-23 08:09:00,45.2,13.0,30.30,SW,222,1.0,8.0,27,0.00,,,0.00,weatherlink.com 1.10,2013-10-23 14:09:00,
2013-10-23 08:24:00,41.9,20.0,30.30,ENE,77,0.0,8.0,42,0.00,,,0.00,weatherlink.com 1.10,2013-10-23 14:24:00,
2013-10-23 08:39:00,42.9,21.0,30.30,ESE,116,0.0,2.0,41,0.00,,,0.00,weatherlink.com 1.10,2013-10-23 14:39:00,
2013-10-23 08:54:00,44.9,21.0,30.30,ESE,116,0.0,1.0,38,0.00,,,0.00,weatherlink.com 1.10,2013-10-23 14:54:00,
2013-10-23 09:09:00,47.4,21.0,30.30,ESE,109,3.0,4.0,36,0.00,,,0.00,weatherlink.com 1.10,2013-10-23 15:09:00,
2013-10-23 09:24:00,47.4,24.0,30.29,East,100,3.0,6.0,40,0.00,,,0.00,weatherlink.com 1.10,2013-10-23 15:24:00,
2013-10-23 09:39:00,47.1,25.0,30.30,East,100,3.0,8.0,42,0.00,,,0.00,weatherlink.com 1.10,2013-10-23 15:39:00,
2013-10-23 09:54:00,48.6,24.0,30.30,ESE,106,3.0,5.0,38,0.00,,,0.00,weatherlink.com 1.10,2013-10-23 15:54:00,
2013-10-23 10:09:00,50.5,22.0,30.30,ENE,71,0.0,6.0,33,0.00,,,0.00,weatherlink.com 1.10,2013-10-23 16:09:00,
2013-10-23 10:24:00,52.0,23.0,30.30,NE,53,1.0,5.0,32,0.00,,,0.00,weatherlink.com 1.10,2013-10-23 16:24:00,
2013-10-23 10:39:00,53.1,21.0,30.30,SE,125,3.0,4.0,29,0.00,,,0.00,weatherlink.com 1.10,2013-10-23 16:39:00,
2013-10-23 10:54:00,54.2,22.0,30.30,ENE,66,3.0,5.0,28,0.00,,,0.00,weatherlink.com 1.10,2013-10-23 16:54:00,
2013-10-23 11:09:00,55.0,20.0,30.30,East,86,5.0,7.0,26,0.00,,,0.00,weatherlink.com 1.10,2013-10-23 17:09:00,
2013-10-23 11:24:00,55.9,20.0,30.30,ESE,102,5.0,8.0,25,0.00,,,0.00,weatherlink.com 1.10,2013-10-23 17:24:00,
2013-10-23 11:39:00,55.6,20.0,30.30,East,95,5.0,7.0,25,0.00,,,0.00,weatherlink.com 1.10,2013-10-23 17:39:00,
2013-10-23 11:54:00,56.5,22.0,30.30,East,81,2.0,8.0,26,0.00,,,0.00,weatherlink.com 1.10,2013-10-23 17:54:00,
2013-10-23 12:09:00,56.7,22.0,30.29,NE,52,0.0,7.0,26,0.00,,,0.00,weatherlink.com 1.10,2013-10-23 18:09:00,
2013-10-23 12:25:00,58.0,21.0,30.29,NNE,27,3.0,6.0,24,0.00,,,0.00,weatherlink.com 1.10,2013-10-23 18:25:00,
2013-10-23 12:39:00,57.5,22.0,30.29,ESE,110,0.0,10.0,25,0.00,,,0.00,weatherlink.com 1.10,2013-10-23 18:39:00,
2013-10-23 12:55:00,58.7,22.0,30.28,NNE,25,5.0,5.0,24,0.00,,,0.00,weatherlink.com 1.10,2013-10-23 18:55:00,
2013-10-23 13:10:00,58.4,23.0,30.27,ENE,77,2.0,7.0,26,0.00,,,0.00,weatherlink.com 1.10,2013-10-23 19:10:00,
2013-10-23 13:25:00,58.7,21.0,30.27,ESE,108,2.0,7.0,23,0.00,,,0.00,weatherlink.com 1.10,2013-10-23 19:25:00,
2013-10-23 13:40:00,59.2,21.0,30.26,East,94,6.0,8.0,23,0.00,,,0.00,weatherlink.com 1.10,2013-10-23 19:40:00,
2013-10-23 14:10:00,60.2,23.0,30.25,East,92,5.0,6.0,24,0.00,,,0.00,weatherlink.com 1.10,2013-10-23 20:10:00,
2013-10-23 14:40:00,59.6,24.0,30.24,East,98,3.0,7.0,25,0.00,,,0.00,weatherlink.com 1.10,2013-10-23 20:40:00,
2013-10-23 14:55:00,61.3,23.0,30.24,East,98,2.0,5.0,23,0.00,,,0.00,weatherlink.com 1.10,2013-10-23 20:55:00,
2013-10-23 15:10:00,61.8,23.0,30.23,North,10,1.0,5.0,23,0.00,,,0.00,weatherlink.com 1.10,2013-10-23 21:10:00,
2013-10-23 15:25:00,61.0,23.0,30.23,SSE,149,0.0,7.0,23,0.00,,,0.00,weatherlink.com 1.10,2013-10-23 21:25:00,
2013-10-23 15:40:00,60.4,25.0,30.23,SE,132,5.0,9.0,26,0.00,,,0.00,weatherlink.com 1.10,2013-10-23 21:40:00,
2013-10-23 15:55:00,60.4,27.0,30.23,East,81,5.0,8.0,28,0.00,,,0.00,weatherlink.com 1.10,2013-10-23 21:55:00,
2013-10-23 16:10:00,59.9,26.0,30.23,East,81,2.0,8.0,27,0.00,,,0.00,weatherlink.com 1.10,2013-10-23 22:10:00,
2013-10-23 16:25:00,60.1,26.0,30.23,ESE,102,4.0,7.0,27,0.00,,,0.00,weatherlink.com 1.10,2013-10-23 22:25:00,
2013-10-23 16:40:00,59.8,26.0,30.23,East,92,5.0,7.0,27,0.00,,,0.00,weatherlink.com 1.10,2013-10-23 22:40:00,
2013-10-23 16:55:00,59.3,26.0,30.23,ESE,105,4.0,7.0,28,0.00,,,0.00,weatherlink.com 1.10,2013-10-23 22:55:00,
2013-10-23 17:10:00,59.2,25.0,30.23,East,96,2.0,6.0,27,0.00,,,0.00,weatherlink.com 1.10,2013-10-23 23:10:00,
2013-10-23 17:25:00,58.4,28.0,30.23,East,91,5.0,6.0,31,0.00,,,0.00,weatherlink.com 1.10,2013-10-23 23:25:00,
2013-10-23 17:40:00,58.0,30.0,30.23,ENE,70,1.0,3.0,34,0.00,,,0.00,weatherlink.com 1.10,2013-10-23 23:40:00,
2013-10-23 17:55:00,56.3,31.0,30.24,ENE,70,0.0,1.0,38,0.00,,,0.00,weatherlink.com 1.10,2013-10-23 23:55:00,
2013-10-23 18:10:00,51.0,30.0,30.24,WSW,256,4.0,6.0,45,0.00,,,0.00,weatherlink.com 1.10,2013-10-24 00:10:00,
2013-10-23 18:25:00,47.7,30.0,30.25,WSW,256,0.0,4.0,51,0.00,,,0.00,weatherlink.com 1.10,2013-10-24 00:25:00,
2013-10-23 18:40:00,46.2,30.0,30.26,SW,229,5.0,5.0,54,0.00,,,0.00,weatherlink.com 1.10,2013-10-24 00:40:00,
2013-10-23 18:55:00,45.1,30.0,30.26,SW,230,2.0,5.0,56,0.00,,,0.00,weatherlink.com 1.10,2013-10-24 00:55:00,
2013-10-23 19:10:00,43.8,29.0,30.27,SW,230,5.0,5.0,57,0.00,,,0.00,weatherlink.com 1.10,2013-10-24 01:10:00,
2013-10-23 19:25:00,42.9,30.0,30.27,SW,230,3.0,4.0,60,0.00,,,0.00,weatherlink.com 1.10,2013-10-24 01:25:00,
2013-10-23 19:40:00,42.6,29.0,30.28,SW,231,2.0,4.0,60,0.00,,,0.00,weatherlink.com 1.10,2013-10-24 01:40:00,
2013-10-23 19:55:00,43.5,29.0,30.28,SW,231,4.0,5.0,57,0.00,,,0.00,weatherlink.com 1.10,2013-10-24 01:55:00,
2013-10-23 20:10:00,41.6,29.0,30.28,SW,231,1.0,3.0,62,0.00,,,0.00,weatherlink.com 1.10,2013-10-24 02:10:00,
2013-10-23 20:25:00,42.9,29.0,30.28,WSW,246,3.0,6.0,58,0.00,,,0.00,weatherlink.com 1.10,2013-10-24 02:25:00,
2013-10-23 20:40:00,41.5,28.0,30.29,SW,218,5.0,7.0,60,0.00,,,0.00,weatherlink.com 1.10,2013-10-24 02:40:00,
2013-10-23 20:55:00,42.8,27.0,30.29,SW,221,5.0,7.0,55,0.00,,,0.00,weatherlink.com 1.10,2013-10-24 02:55:00,
2013-10-23 21:10:00,42.6,28.0,30.29,SW,221,4.0,6.0,56,0.00,,,0.00,weatherlink.com 1.10,2013-10-24 03:10:00,
2013-10-23 21:25:00,43.5,27.0,30.30,SW,218,1.0,5.0,53,0.00,,,0.00,weatherlink.com 1.10,2013-10-24 03:25:00,
2013-10-23 21:40:00,42.3,28.0,30.30,SW,218,3.0,4.0,58,0.00,,,0.00,weatherlink.com 1.10,2013-10-24 03:40:00,
2013-10-23 21:55:00,40.1,28.0,30.30,SW,218,2.0,3.0,62,0.00,,,0.00,weatherlink.com 1.10,2013-10-24 03:55:00,
2013-10-23 22:10:00,40.8,28.0,30.31,WSW,243,3.0,5.0,61,0.00,,,0.00,weatherlink.com 1.10,2013-10-24 04:10:00,
2013-10-23 22:25:00,40.1,27.0,30.31,WSW,256,5.0,7.0,61,0.00,,,0.00,weatherlink.com 1.10,2013-10-24 04:25:00,
2013-10-23 22:40:00,39.9,28.0,30.31,WSW,257,2.0,5.0,63,0.00,,,0.00,weatherlink.com 1.10,2013-10-24 04:40:00,
2013-10-23 22:55:00,39.6,28.0,30.31,WSW,257,1.0,4.0,64,0.00,,,0.00,weatherlink.com 1.10,2013-10-24 04:55:00,
2013-10-23 23:10:00,39.6,28.0,30.32,WSW,257,0.0,5.0,63,0.00,,,0.00,weatherlink.com 1.10,2013-10-24 05:10:00,
2013-10-23 23:25:00,40.3,28.0,30.32,WSW,257,2.0,4.0,63,0.00,,,0.00,weatherlink.com 1.10,2013-10-24 05:25:00,
2013-10-23 23:40:00,38.2,28.0,30.32,WSW,257,2.0,4.0,67,0.00,,,0.00,weatherlink.com 1.10,2013-10-24 05:40:00,
2013-10-23 23:55:00,38.3,28.0,30.32,WSW,257,3.0,4.0,66,0.00,,,0.00,weatherlink.com 1.10,2013-10-24 05:55:00,